Time;durP1;ratioP1;P1;durP2;ratioP2;P2;SDS_P1;SDS_P2;PMS_P1;PMS_P2;Temp;Humidity;BMP_temperature;BMP_pressure;BME280_temperature;BME280_humidity;BME280_pressure;Samples;Min_cycle;Max_cycle;Signal;HPM_P1;HPM_P2
2022/03/29 00:01:34;;;;;;;;;;;6.40;82.00;;;;;;5034832;28;19909;-73
2022/03/29 00:04:00;;;;;;;;;;;6.40;81.80;;;;;;5034599;28;20394;-73
2022/03/29 00:06:25;;;;;;;;;;;6.50;81.60;;;;;;5037836;28;19920;-73
2022/03/29 00:08:51;;;;;;;;;;;6.50;81.80;;;;;;5053901;28;20412;-73
2022/03/29 00:11:18;;;;;;;;;;;6.60;81.30;;;;;;5053986;28;19967;-73
2022/03/29 00:13:44;;;;;;;;;;;6.50;81.00;;;;;;5039689;28;19916;-73
2022/03/29 00:16:09;;;;;;;;;;;6.40;81.10;;;;;;5043136;28;19917;-73
2022/03/29 00:18:35;;;;;;;;;;;6.10;82.70;;;;;;5034402;28;19909;-73
2022/03/29 00:21:00;;;;;;;;;;;5.80;84.40;;;;;;5032850;28;19925;-73
2022/03/29 00:23:26;;;;;;;;;;;5.70;85.00;;;;;;5034246;28;20378;-73
2022/03/29 00:25:51;;;;;;;;;;;5.50;85.80;;;;;;5034701;28;19909;-73
2022/03/29 00:28:17;;;;;;;;;;;5.30;86.60;;;;;;5034460;28;19909;-73
2022/03/29 00:30:42;;;;;;;;;;;5.20;87.40;;;;;;5034369;28;20008;-73
2022/03/29 00:33:08;;;;;;;;;;;5.20;87.90;;;;;;5033947;28;19909;-73
2022/03/29 00:35:33;;;;;;;;;;;5.10;88.20;;;;;;5032963;28;20287;-73
2022/03/29 00:37:59;;;;;;;;;;;5.00;88.60;;;;;;5034360;28;19956;-73
2022/03/29 00:40:24;;;;;;;;;;;5.50;86.60;;;;;;5033995;28;19916;-72
2022/03/29 00:42:50;;;;;;;;;;;5.90;84.40;;;;;;5043248;28;20356;-72
2022/03/29 00:45:16;;;;;;;;;;;6.00;84.20;;;;;;5036830;28;19913;-73
2022/03/29 00:47:41;;;;;;;;;;;5.70;85.40;;;;;;5053131;28;19920;-73
2022/03/29 00:50:07;;;;;;;;;;;5.40;86.50;;;;;;5053014;28;19915;-73
2022/03/29 00:52:33;;;;;;;;;;;5.60;86.00;;;;;;5052865;28;19959;-73
2022/03/29 00:55:00;;;;;;;;;;;5.90;84.10;;;;;;5052775;28;20425;-73
2022/03/29 00:57:27;;;;;;;;;;;6.10;82.70;;;;;;5052810;28;19931;-73
2022/03/29 00:59:53;;;;;;;;;;;5.60;86.80;;;;;;5052711;28;19913;-73
2022/03/29 01:02:18;;;;;;;;;;;5.30;88.20;;;;;;5052706;28;19931;-73
2022/03/29 01:04:43;;;;;;;;;;;5.20;89.50;;;;;;5052353;28;19913;-73
2022/03/29 01:07:09;;;;;;;;;;;5.00;90.00;;;;;;5052627;28;19923;-73
2022/03/29 01:09:35;;;;;;;;;;;5.10;90.00;;;;;;5052588;28;19912;-73
2022/03/29 01:12:00;;;;;;;;;;;5.00;90.20;;;;;;5048590;28;19909;-73
2022/03/29 01:14:26;;;;;;;;;;;5.00;90.60;;;;;;5043290;28;19921;-73
2022/03/29 01:19:37;;;;;;;;;;;5.10;89.70;;;;;;5033302;28;20042;-73
2022/03/29 01:22:03;;;;;;;;;;;5.10;89.70;;;;;;5033407;28;19909;-73
2022/03/29 01:24:29;;;;;;;;;;;5.10;89.30;;;;;;5033092;28;19913;-73
2022/03/29 01:26:59;;;;;;;;;;;5.10;89.60;;;;;;5033252;28;19955;-73
2022/03/29 01:29:24;;;;;;;;;;;5.20;88.90;;;;;;5033092;28;19909;-73
2022/03/29 01:31:51;;;;;;;;;;;5.30;88.60;;;;;;5032477;28;19944;-73
2022/03/29 01:34:17;;;;;;;;;;;5.30;88.60;;;;;;5032930;28;20223;-73
2022/03/29 01:36:43;;;;;;;;;;;5.20;89.70;;;;;;5032964;28;20319;-73
2022/03/29 01:39:08;;;;;;;;;;;5.00;90.00;;;;;;5032848;28;20012;-73
2022/03/29 01:41:34;;;;;;;;;;;5.10;88.70;;;;;;5032769;28;19913;-73
2022/03/29 01:43:59;;;;;;;;;;;5.20;88.50;;;;;;5038877;28;19909;-73
2022/03/29 01:46:25;;;;;;;;;;;5.00;89.90;;;;;;5043103;28;19910;-73
2022/03/29 01:48:51;;;;;;;;;;;4.90;90.00;;;;;;5032767;28;19920;-73
2022/03/29 01:51:16;;;;;;;;;;;4.80;90.30;;;;;;5032523;28;19909;-73
2022/03/29 01:53:42;;;;;;;;;;;4.70;90.50;;;;;;5032528;28;19910;-73
2022/03/29 01:56:07;;;;;;;;;;;4.70;90.80;;;;;;5032684;28;19916;-73
2022/03/29 01:58:33;;;;;;;;;;;4.70;90.90;;;;;;5032731;28;19913;-73
2022/03/29 02:00:59;;;;;;;;;;;4.60;91.10;;;;;;5032459;28;19926;-73
2022/03/29 02:03:24;;;;;;;;;;;4.50;91.10;;;;;;5032560;28;19912;-73
2022/03/29 02:05:50;;;;;;;;;;;4.40;91.60;;;;;;5032595;28;19909;-73
2022/03/29 02:08:19;;;;;;;;;;;4.40;91.80;;;;;;5032488;28;20374;-73
2022/03/29 02:10:44;;;;;;;;;;;4.50;92.10;;;;;;5032703;28;19992;-73
2022/03/29 02:13:10;;;;;;;;;;;4.50;91.80;;;;;;5038429;28;20008;-73
2022/03/29 02:15:39;;;;;;;;;;;4.60;91.50;;;;;;5034949;28;19959;-73
2022/03/29 02:18:05;;;;;;;;;;;4.60;91.50;;;;;;5032764;28;20369;-73
2022/03/29 02:20:31;;;;;;;;;;;4.60;91.50;;;;;;5032309;28;19927;-73
2022/03/29 02:23:02;;;;;;;;;;;4.60;91.50;;;;;;5031661;28;20412;-73
2022/03/29 02:25:28;;;;;;;;;;;4.60;91.60;;;;;;5032066;28;19917;-73
2022/03/29 02:27:55;;;;;;;;;;;4.80;90.50;;;;;;5032372;28;19910;-73
2022/03/29 02:30:20;;;;;;;;;;;4.90;90.20;;;;;;5031804;28;19909;-73
2022/03/29 02:32:46;;;;;;;;;;;4.70;90.80;;;;;;5032067;28;20326;-73
2022/03/29 02:35:12;;;;;;;;;;;4.50;91.20;;;;;;5031912;28;19963;-73
2022/03/29 02:37:37;;;;;;;;;;;4.70;90.90;;;;;;5030724;28;20378;-73
2022/03/29 02:40:03;;;;;;;;;;;4.90;90.00;;;;;;5032062;28;19965;-73
2022/03/29 02:42:29;;;;;;;;;;;5.20;88.50;;;;;;5038877;28;19962;-73
2022/03/29 02:44:54;;;;;;;;;;;4.80;90.50;;;;;;5049007;28;19909;-73
2022/03/29 02:47:20;;;;;;;;;;;4.70;90.50;;;;;;5031960;28;19909;-73
2022/03/29 02:49:46;;;;;;;;;;;4.70;90.60;;;;;;5030532;28;19920;-73
2022/03/29 02:52:11;;;;;;;;;;;4.80;90.20;;;;;;5031679;28;19998;-73
2022/03/29 02:54:38;;;;;;;;;;;5.10;88.80;;;;;;5031530;28;20019;-73
2022/03/29 02:57:04;;;;;;;;;;;5.70;86.70;;;;;;5051023;28;19951;-73
2022/03/29 02:59:29;;;;;;;;;;;5.20;88.50;;;;;;5050626;28;19998;-73
2022/03/29 03:01:56;;;;;;;;;;;5.00;89.50;;;;;;5050915;28;19909;-73
2022/03/29 03:04:21;;;;;;;;;;;5.10;88.10;;;;;;5050567;28;19916;-73
2022/03/29 03:06:46;;;;;;;;;;;5.40;87.60;;;;;;5049759;28;19909;-73
2022/03/29 03:09:12;;;;;;;;;;;4.90;90.00;;;;;;5050955;28;19913;-73
2022/03/29 03:11:38;;;;;;;;;;;4.60;90.90;;;;;;5050138;28;19909;-73
2022/03/29 03:14:03;;;;;;;;;;;5.00;89.70;;;;;;5033297;28;19909;-73
2022/03/29 03:16:29;;;;;;;;;;;5.60;87.40;;;;;;5036847;28;20282;-73
2022/03/29 03:18:55;;;;;;;;;;;5.80;86.10;;;;;;5031675;28;19916;-73
2022/03/29 03:21:20;;;;;;;;;;;5.90;85.90;;;;;;5031494;28;19956;-73
2022/03/29 03:23:46;;;;;;;;;;;5.80;86.20;;;;;;5031367;28;19913;-73
2022/03/29 03:26:11;;;;;;;;;;;5.60;88.00;;;;;;5031886;28;19949;-73
2022/03/29 03:28:37;;;;;;;;;;;5.60;87.70;;;;;;5031516;28;19975;-73
2022/03/29 03:31:02;;;;;;;;;;;5.70;87.40;;;;;;5031396;28;19931;-74
2022/03/29 03:33:28;;;;;;;;;;;5.70;87.30;;;;;;5031437;28;19925;-74
2022/03/29 03:35:53;;;;;;;;;;;5.50;88.30;;;;;;5031589;28;20359;-73
2022/03/29 03:38:19;;;;;;;;;;;5.40;88.00;;;;;;5031616;28;19916;-73
2022/03/29 03:40:44;;;;;;;;;;;5.60;87.40;;;;;;5031293;28;20367;-73
2022/03/29 03:43:10;;;;;;;;;;;5.70;87.00;;;;;;5037053;28;19909;-74
2022/03/29 03:45:36;;;;;;;;;;;5.60;87.60;;;;;;5036546;28;19919;-73
2022/03/29 03:48:02;;;;;;;;;;;5.70;86.80;;;;;;5031445;28;19909;-74
2022/03/29 03:50:28;;;;;;;;;;;5.20;89.00;;;;;;5031192;28;20367;-74
2022/03/29 03:52:54;;;;;;;;;;;5.10;89.20;;;;;;5031231;28;20020;-73
2022/03/29 03:55:20;;;;;;;;;;;5.10;89.80;;;;;;5032952;28;19910;-74
2022/03/29 03:57:46;;;;;;;;;;;5.00;90.00;;;;;;5035166;28;19913;-73
2022/03/29 04:00:12;;;;;;;;;;;5.10;89.60;;;;;;5035705;28;19921;-73
2022/03/29 04:02:37;;;;;;;;;;;5.00;90.10;;;;;;5035051;28;19964;-73
2022/03/29 04:05:03;;;;;;;;;;;4.80;90.50;;;;;;5035165;28;19910;-73
2022/03/29 04:07:29;;;;;;;;;;;4.60;91.00;;;;;;5035095;28;19916;-73
2022/03/29 04:09:54;;;;;;;;;;;4.40;91.40;;;;;;5035035;28;20435;-74
2022/03/29 04:12:20;;;;;;;;;;;4.20;92.00;;;;;;5040847;28;19908;-73
2022/03/29 04:14:46;;;;;;;;;;;4.00;92.40;;;;;;5058621;28;19916;-73
2022/03/29 04:17:11;;;;;;;;;;;4.00;92.80;;;;;;5036270;28;19924;-73
2022/03/29 04:19:37;;;;;;;;;;;3.90;93.10;;;;;;5034453;28;19913;-73
2022/03/29 04:22:03;;;;;;;;;;;3.90;93.20;;;;;;5034613;28;19910;-73
2022/03/29 04:24:28;;;;;;;;;;;3.90;93.30;;;;;;5034457;28;19915;-74
2022/03/29 04:26:54;;;;;;;;;;;3.80;93.80;;;;;;5034590;28;19932;-73
2022/03/29 04:29:19;;;;;;;;;;;3.70;94.30;;;;;;5034612;28;20380;-73
2022/03/29 04:31:45;;;;;;;;;;;3.70;94.60;;;;;;5034418;28;19915;-73
2022/03/29 04:34:10;;;;;;;;;;;3.90;94.20;;;;;;5034364;28;20000;-73
2022/03/29 04:36:36;;;;;;;;;;;4.10;93.80;;;;;;5037475;28;19966;-73
2022/03/29 04:39:01;;;;;;;;;;;4.20;93.20;;;;;;5037277;28;19909;-73
2022/03/29 04:41:27;;;;;;;;;;;4.30;93.20;;;;;;5034009;28;19920;-73
2022/03/29 04:43:52;;;;;;;;;;;4.30;93.50;;;;;;5043573;28;19909;-73
2022/03/29 04:46:18;;;;;;;;;;;4.50;92.60;;;;;;5046261;28;19912;-73
2022/03/29 04:48:44;;;;;;;;;;;4.50;92.50;;;;;;5034337;28;19909;-73
2022/03/29 04:51:10;;;;;;;;;;;4.40;92.80;;;;;;5034243;28;19910;-73
2022/03/29 04:53:36;;;;;;;;;;;4.30;93.20;;;;;;5033870;28;19952;-73
2022/03/29 04:56:01;;;;;;;;;;;4.30;93.30;;;;;;5034286;28;20382;-73
2022/03/29 04:58:27;;;;;;;;;;;4.50;92.60;;;;;;5034506;28;20348;-73
2022/03/29 05:00:52;;;;;;;;;;;4.90;91.90;;;;;;5034441;28;19920;-73
2022/03/29 05:03:18;;;;;;;;;;;4.90;91.70;;;;;;5038596;28;19916;-73
2022/03/29 05:05:44;;;;;;;;;;;5.00;91.60;;;;;;5039994;28;20365;-74
2022/03/29 05:08:09;;;;;;;;;;;4.90;91.60;;;;;;5033413;28;19955;-74
2022/03/29 05:10:35;;;;;;;;;;;4.80;91.90;;;;;;5034074;28;19910;-74
2022/03/29 05:13:00;;;;;;;;;;;4.70;92.10;;;;;;5039968;28;19943;-73
2022/03/29 05:15:26;;;;;;;;;;;4.50;92.90;;;;;;5038162;28;19952;-74
2022/03/29 05:17:51;;;;;;;;;;;4.90;92.10;;;;;;5033537;28;19920;-73
2022/03/29 05:20:17;;;;;;;;;;;4.90;91.90;;;;;;5033584;28;19920;-73
2022/03/29 05:22:46;;;;;;;;;;;4.60;92.50;;;;;;5032985;28;20409;-73
2022/03/29 05:25:15;;;;;;;;;;;4.50;92.70;;;;;;5032974;28;19932;-73
2022/03/29 05:27:41;;;;;;;;;;;4.50;92.80;;;;;;5043674;28;19909;-73
2022/03/29 05:30:08;;;;;;;;;;;4.40;93.30;;;;;;5033370;28;20044;-73
2022/03/29 05:32:33;;;;;;;;;;;4.40;93.20;;;;;;5033162;28;19984;-73
2022/03/29 05:34:59;;;;;;;;;;;4.50;92.80;;;;;;5033076;28;20408;-73
2022/03/29 05:37:24;;;;;;;;;;;4.50;93.50;;;;;;5033335;28;19996;-73
2022/03/29 05:39:50;;;;;;;;;;;4.40;93.70;;;;;;5032823;28;19913;-73
2022/03/29 05:42:15;;;;;;;;;;;4.30;93.80;;;;;;5037664;28;20275;-73
2022/03/29 05:44:41;;;;;;;;;;;4.20;93.90;;;;;;5041171;28;19913;-73
2022/03/29 05:49:51;;;;;;;;;;;4.10;94.60;;;;;;5045831;28;19996;-73
2022/03/29 05:52:17;;;;;;;;;;;4.30;94.20;;;;;;5051674;28;19909;-73
2022/03/29 05:54:45;;;;;;;;;;;4.50;93.50;;;;;;5032293;28;19917;-74
2022/03/29 05:57:14;;;;;;;;;;;4.70;93.00;;;;;;5045445;28;19940;-73
2022/03/29 05:59:40;;;;;;;;;;;4.70;93.40;;;;;;5051362;28;19968;-73
2022/03/29 06:02:06;;;;;;;;;;;4.70;95.20;;;;;;5051749;28;19936;-73
2022/03/29 06:04:32;;;;;;;;;;;4.80;93.70;;;;;;5051302;28;19909;-73
2022/03/29 06:06:58;;;;;;;;;;;5.00;93.40;;;;;;5050887;28;19999;-73
2022/03/29 06:09:23;;;;;;;;;;;5.00;93.40;;;;;;5051290;28;19996;-73
2022/03/29 06:11:49;;;;;;;;;;;5.10;93.50;;;;;;5048844;28;20072;-73
2022/03/29 06:14:14;;;;;;;;;;;5.20;93.30;;;;;;5035574;28;19963;-73
2022/03/29 06:16:41;;;;;;;;;;;5.30;93.30;;;;;;5044706;28;20315;-73
2022/03/29 06:19:06;;;;;;;;;;;5.40;92.50;;;;;;5032145;28;19913;-73
2022/03/29 06:21:32;;;;;;;;;;;5.50;93.20;;;;;;5030666;28;19920;-73
2022/03/29 06:23:57;;;;;;;;;;;5.60;92.60;;;;;;5031812;28;19962;-73
2022/03/29 06:26:23;;;;;;;;;;;5.70;93.00;;;;;;5032238;28;19913;-73
2022/03/29 06:28:48;;;;;;;;;;;5.70;92.90;;;;;;5032056;28;20286;-73
2022/03/29 06:31:14;;;;;;;;;;;5.70;93.30;;;;;;5031879;28;19909;-73
2022/03/29 06:33:39;;;;;;;;;;;5.80;93.40;;;;;;5031776;28;19909;-73
2022/03/29 06:36:05;;;;;;;;;;;5.90;92.70;;;;;;5030685;28;19913;-73
2022/03/29 06:38:31;;;;;;;;;;;6.10;92.70;;;;;;5039143;28;20258;-73
2022/03/29 06:40:58;;;;;;;;;;;6.40;92.70;;;;;;5041369;28;20358;-73
2022/03/29 06:43:24;;;;;;;;;;;6.60;91.90;;;;;;5043819;28;19977;-74
2022/03/29 06:45:50;;;;;;;;;;;6.80;91.70;;;;;;5036295;28;19912;-73
2022/03/29 06:48:15;;;;;;;;;;;6.90;92.20;;;;;;5039999;28;19951;-73
2022/03/29 06:50:41;;;;;;;;;;;7.10;93.00;;;;;;5040224;28;20354;-73
2022/03/29 06:53:06;;;;;;;;;;;7.20;92.40;;;;;;5048278;28;19916;-73
2022/03/29 06:55:32;;;;;;;;;;;7.30;91.60;;;;;;5031196;28;19917;-74
2022/03/29 06:57:58;;;;;;;;;;;7.40;91.70;;;;;;5040442;28;19955;-73
2022/03/29 07:00:25;;;;;;;;;;;7.50;91.50;;;;;;5040158;28;19913;-73
2022/03/29 07:02:50;;;;;;;;;;;7.70;92.70;;;;;;5031129;28;19909;-73
2022/03/29 07:05:16;;;;;;;;;;;7.70;92.00;;;;;;5030865;28;19913;-74
2022/03/29 07:07:41;;;;;;;;;;;7.70;91.50;;;;;;5033347;28;20266;-73
2022/03/29 07:12:52;;;;;;;;;;;7.90;90.90;;;;;;5038959;28;19949;-73
2022/03/29 07:15:18;;;;;;;;;;;8.10;91.00;;;;;;5045641;28;19917;-73
2022/03/29 07:17:44;;;;;;;;;;;8.30;90.20;;;;;;5046381;28;19948;-73
2022/03/29 07:20:10;;;;;;;;;;;8.50;91.20;;;;;;5050229;28;20389;-73
2022/03/29 07:22:35;;;;;;;;;;;8.60;90.40;;;;;;5049975;28;19909;-73
2022/03/29 07:25:01;;;;;;;;;;;8.80;90.70;;;;;;5050375;28;19920;-73
2022/03/29 07:27:26;;;;;;;;;;;9.00;87.40;;;;;;5050608;28;19908;-73
2022/03/29 07:29:53;;;;;;;;;;;9.10;88.60;;;;;;5051329;28;19935;-73
2022/03/29 07:32:18;;;;;;;;;;;9.20;86.80;;;;;;5054062;28;19909;-74
2022/03/29 07:34:44;;;;;;;;;;;9.20;86.90;;;;;;5053064;28;19916;-73
2022/03/29 07:37:09;;;;;;;;;;;9.30;86.90;;;;;;5051635;28;19920;-73
2022/03/29 07:39:35;;;;;;;;;;;9.40;83.50;;;;;;5052081;28;19909;-73
2022/03/29 07:42:00;;;;;;;;;;;9.50;81.20;;;;;;5049375;28;19932;-74
2022/03/29 07:44:26;;;;;;;;;;;9.80;82.00;;;;;;5037694;28;19943;-73
2022/03/29 07:46:51;;;;;;;;;;;10.00;79.20;;;;;;5048755;28;19916;-73
2022/03/29 07:49:17;;;;;;;;;;;10.30;77.70;;;;;;5038658;28;19952;-73
2022/03/29 07:51:42;;;;;;;;;;;10.50;75.70;;;;;;5042392;28;19988;-73
2022/03/29 07:54:08;;;;;;;;;;;10.70;76.10;;;;;;5046852;28;19915;-74
2022/03/29 07:56:33;;;;;;;;;;;11.00;75.20;;;;;;5053199;28;20369;-74
2022/03/29 07:58:59;;;;;;;;;;;11.30;77.70;;;;;;5046238;28;19915;-73
2022/03/29 08:01:24;;;;;;;;;;;11.80;77.10;;;;;;5047164;28;19920;-74
2022/03/29 08:03:50;;;;;;;;;;;12.30;74.20;;;;;;5039786;28;19909;-74
2022/03/29 08:06:15;;;;;;;;;;;12.90;75.50;;;;;;5036837;28;19913;-74
2022/03/29 08:08:41;;;;;;;;;;;13.30;73.40;;;;;;5034999;28;19909;-74
2022/03/29 08:11:08;;;;;;;;;;;13.80;72.60;;;;;;5034853;28;20290;-74
2022/03/29 08:13:34;;;;;;;;;;;14.30;67.20;;;;;;5047355;28;19909;-74
2022/03/29 08:16:01;;;;;;;;;;;14.40;69.20;;;;;;5041965;28;19920;-74
2022/03/29 08:18:28;;;;;;;;;;;14.10;68.80;;;;;;5034671;28;19966;-74
2022/03/29 08:20:53;;;;;;;;;;;13.50;73.30;;;;;;5034522;28;19913;-74
2022/03/29 08:23:19;;;;;;;;;;;13.00;75.00;;;;;;5034312;28;19980;-74
2022/03/29 08:25:44;;;;;;;;;;;12.70;73.50;;;;;;5034612;28;20393;-74
2022/03/29 08:28:10;;;;;;;;;;;12.40;74.90;;;;;;5034751;28;20012;-74
2022/03/29 08:30:36;;;;;;;;;;;12.30;73.60;;;;;;5034385;28;20002;-74
2022/03/29 08:33:02;;;;;;;;;;;12.60;74.50;;;;;;5034258;28;20407;-74
2022/03/29 08:35:31;;;;;;;;;;;12.80;72.70;;;;;;5034230;28;19909;-74
2022/03/29 08:37:57;;;;;;;;;;;12.90;74.00;;;;;;5034223;28;19913;-74
2022/03/29 08:40:26;;;;;;;;;;;13.10;70.20;;;;;;5034187;28;20233;-74
2022/03/29 08:42:54;;;;;;;;;;;13.30;72.60;;;;;;5039485;28;20003;-73
2022/03/29 08:45:24;;;;;;;;;;;13.60;70.30;;;;;;5047570;28;19963;-74
2022/03/29 08:47:50;;;;;;;;;;;13.80;70.90;;;;;;5039220;28;19952;-74
2022/03/29 08:50:15;;;;;;;;;;;14.40;69.30;;;;;;5034027;28;19956;-73
2022/03/29 08:52:41;;;;;;;;;;;15.20;72.90;;;;;;5033997;28;19909;-74
2022/03/29 08:55:08;;;;;;;;;;;16.30;62.40;;;;;;5033850;28;19913;-74
2022/03/29 08:57:33;;;;;;;;;;;16.70;63.30;;;;;;5034144;28;19952;-74
2022/03/29 08:59:59;;;;;;;;;;;16.80;61.00;;;;;;5048913;28;19975;-74
2022/03/29 09:02:25;;;;;;;;;;;17.30;59.00;;;;;;5033833;28;19916;-74
2022/03/29 09:05:15;;;;;;;;;;;17.50;58.70;;;;;;5033850;28;20279;-74
2022/03/29 09:07:57;;;;;;;;;;;17.20;57.30;;;;;;5033835;28;19971;-74
2022/03/29 09:10:37;;;;;;;;;;;17.10;59.20;;;;;;5033460;28;20352;-74
2022/03/29 09:13:21;;;;;;;;;;;16.60;57.80;;;;;;5037715;28;19916;-74
2022/03/29 09:15:47;;;;;;;;;;;16.80;59.50;;;;;;5038084;28;20000;-74
2022/03/29 09:18:13;;;;;;;;;;;16.90;58.50;;;;;;5035773;28;19909;-74
2022/03/29 09:20:39;;;;;;;;;;;17.40;58.70;;;;;;5032422;28;19913;-74
2022/03/29 09:23:10;;;;;;;;;;;17.90;57.10;;;;;;5032592;28;19938;-74
2022/03/29 09:25:38;;;;;;;;;;;17.60;56.30;;;;;;5032995;28;19913;-73
2022/03/29 09:28:12;;;;;;;;;;;17.10;57.80;;;;;;5033778;28;20374;-74
2022/03/29 09:30:39;;;;;;;;;;;17.20;58.70;;;;;;5034484;28;19909;-77
2022/03/29 09:33:09;;;;;;;;;;;16.90;59.60;;;;;;5037935;28;19955;-74
2022/03/29 09:35:37;;;;;;;;;;;16.80;59.30;;;;;;5050682;28;19909;-73
2022/03/29 09:38:18;;;;;;;;;;;16.50;59.20;;;;;;5051750;28;19909;-73
2022/03/29 09:40:44;;;;;;;;;;;16.10;57.80;;;;;;5051586;28;19919;-73
2022/03/29 09:43:10;;;;;;;;;;;15.90;61.30;;;;;;5050021;28;20289;-73
2022/03/29 09:45:38;;;;;;;;;;;16.10;57.90;;;;;;5048482;28;19955;-73
2022/03/29 09:48:20;;;;;;;;;;;16.40;58.40;;;;;;5049429;28;19908;-73
2022/03/29 09:50:46;;;;;;;;;;;16.60;59.30;;;;;;5036404;28;19910;-72
2022/03/29 09:53:30;;;;;;;;;;;16.90;58.10;;;;;;5031632;28;19916;-73
2022/03/29 09:55:59;;;;;;;;;;;16.90;57.10;;;;;;5032164;28;20504;-73
2022/03/29 09:58:24;;;;;;;;;;;17.90;55.50;;;;;;5044943;28;19910;-73
2022/03/29 10:00:50;;;;;;;;;;;18.20;56.90;;;;;;5039893;28;19913;-73
2022/03/29 10:03:17;;;;;;;;;;;18.30;54.90;;;;;;5046965;28;20012;-73
2022/03/29 10:05:46;;;;;;;;;;;18.40;54.30;;;;;;5032311;28;19992;-73
2022/03/29 10:11:00;;;;;;;;;;;18.50;52.80;;;;;;5048057;28;20001;-73
2022/03/29 10:13:25;;;;;;;;;;;18.70;50.70;;;;;;5042116;28;19909;-73
2022/03/29 10:15:51;;;;;;;;;;;19.10;49.70;;;;;;5046479;28;19913;-73
2022/03/29 10:18:18;;;;;;;;;;;18.80;51.00;;;;;;5029216;28;19913;-73
2022/03/29 10:20:43;;;;;;;;;;;18.60;52.30;;;;;;5031987;28;20349;-73
2022/03/29 10:23:10;;;;;;;;;;;18.60;50.70;;;;;;5031348;28;19941;-73
2022/03/29 10:25:37;;;;;;;;;;;18.60;53.60;;;;;;5032725;28;19955;-73
2022/03/29 10:28:05;;;;;;;;;;;18.30;51.00;;;;;;5031835;28;19964;-73
2022/03/29 10:30:41;;;;;;;;;;;18.00;53.50;;;;;;5032273;28;19937;-73
2022/03/29 10:33:16;;;;;;;;;;;17.90;55.10;;;;;;5044563;28;19913;-73
2022/03/29 10:36:01;;;;;;;;;;;18.00;54.50;;;;;;5050716;28;20012;-73
2022/03/29 10:38:45;;;;;;;;;;;18.00;52.60;;;;;;5050804;28;19999;-73
2022/03/29 10:41:26;;;;;;;;;;;17.90;54.50;;;;;;5050705;28;19913;-73
2022/03/29 10:43:52;;;;;;;;;;;18.10;53.10;;;;;;5037310;28;19909;-73
2022/03/29 10:46:21;;;;;;;;;;;18.40;49.10;;;;;;5040486;28;19909;-73
2022/03/29 10:49:05;;;;;;;;;;;18.50;50.30;;;;;;5042360;28;19920;-73
2022/03/29 10:51:31;;;;;;;;;;;18.60;51.50;;;;;;5031620;28;19909;-73
2022/03/29 10:54:16;;;;;;;;;;;18.50;52.00;;;;;;5031465;28;19920;-73
2022/03/29 10:57:08;;;;;;;;;;;18.50;49.60;;;;;;5033032;28;19963;-73
2022/03/29 10:59:37;;;;;;;;;;;18.60;51.40;;;;;;5042747;28;19909;-73
2022/03/29 11:02:07;;;;;;;;;;;18.30;51.40;;;;;;5035136;28;19916;-73
2022/03/29 11:04:33;;;;;;;;;;;18.40;51.70;;;;;;5031825;28;19917;-73
2022/03/29 11:07:05;;;;;;;;;;;18.20;51.30;;;;;;5035245;28;20405;-72
2022/03/29 11:09:30;;;;;;;;;;;18.50;51.30;;;;;;5039986;28;20362;-73
2022/03/29 11:11:56;;;;;;;;;;;18.70;52.10;;;;;;5043737;28;19958;-72
2022/03/29 11:14:27;;;;;;;;;;;18.50;52.70;;;;;;5050089;28;19917;-73
2022/03/29 11:16:53;;;;;;;;;;;18.40;51.70;;;;;;5035714;28;20281;-72
2022/03/29 11:19:37;;;;;;;;;;;18.00;51.00;;;;;;5037968;28;20015;-71
2022/03/29 11:22:21;;;;;;;;;;;17.70;50.60;;;;;;5036210;28;19913;-72
2022/03/29 11:24:51;;;;;;;;;;;17.60;50.10;;;;;;5049898;28;19940;-73
2022/03/29 11:27:26;;;;;;;;;;;17.50;49.40;;;;;;5053853;28;19919;-73
2022/03/29 11:29:52;;;;;;;;;;;17.80;52.10;;;;;;5042483;28;20290;-73
2022/03/29 11:32:18;;;;;;;;;;;17.70;51.60;;;;;;5037233;28;19909;-73
2022/03/29 11:34:44;;;;;;;;;;;17.80;50.80;;;;;;5034775;28;19909;-73
2022/03/29 11:37:25;;;;;;;;;;;17.90;50.00;;;;;;5043078;28;19909;-73
2022/03/29 11:39:50;;;;;;;;;;;17.50;49.90;;;;;;5053887;28;20007;-73
2022/03/29 11:42:16;;;;;;;;;;;17.60;50.80;;;;;;5047853;28;20034;-72
2022/03/29 11:44:46;;;;;;;;;;;17.70;50.00;;;;;;5044546;28;19939;-73
2022/03/29 11:47:11;;;;;;;;;;;18.00;53.40;;;;;;5042097;28;19909;-73
2022/03/29 11:49:42;;;;;;;;;;;18.30;52.10;;;;;;5035767;28;19999;-73
2022/03/29 11:52:07;;;;;;;;;;;18.20;48.60;;;;;;5034828;28;19909;-73
2022/03/29 11:54:53;;;;;;;;;;;18.10;52.00;;;;;;5033468;28;20443;-73
2022/03/29 11:57:18;;;;;;;;;;;17.70;53.20;;;;;;5034609;28;20374;-73
2022/03/29 11:59:44;;;;;;;;;;;17.60;52.90;;;;;;5048053;28;19984;-72
2022/03/29 12:02:09;;;;;;;;;;;17.50;53.80;;;;;;5034624;28;19909;-73
2022/03/29 12:04:38;;;;;;;;;;;17.50;51.80;;;;;;5043743;28;19909;-73
2022/03/29 12:07:04;;;;;;;;;;;17.30;52.20;;;;;;5033897;28;20010;-73
2022/03/29 12:09:31;;;;;;;;;;;17.40;53.00;;;;;;5034400;28;20346;-73
2022/03/29 12:11:59;;;;;;;;;;;17.60;49.80;;;;;;5034602;28;20267;-73
2022/03/29 12:14:25;;;;;;;;;;;17.20;48.80;;;;;;5046531;28;19947;-73
2022/03/29 12:16:55;;;;;;;;;;;17.50;50.60;;;;;;5037215;28;19961;-73
2022/03/29 12:19:22;;;;;;;;;;;17.50;48.80;;;;;;5034589;28;20004;-72
2022/03/29 12:21:52;;;;;;;;;;;17.40;50.40;;;;;;5034349;28;20347;-73
2022/03/29 12:24:17;;;;;;;;;;;17.60;49.40;;;;;;5033132;28;19917;-73
2022/03/29 12:26:44;;;;;;;;;;;17.40;51.40;;;;;;5034677;28;19909;-73
2022/03/29 12:29:12;;;;;;;;;;;17.60;50.00;;;;;;5034380;28;19916;-73
2022/03/29 12:31:38;;;;;;;;;;;17.50;50.10;;;;;;5033858;28;20451;-73
2022/03/29 12:34:04;;;;;;;;;;;17.60;52.50;;;;;;5033969;28;19909;-72
2022/03/29 12:36:29;;;;;;;;;;;17.70;52.00;;;;;;5033938;28;19909;-73
2022/03/29 12:38:59;;;;;;;;;;;17.70;51.30;;;;;;5037211;28;20005;-74
2022/03/29 12:41:34;;;;;;;;;;;17.70;52.20;;;;;;5051480;28;19948;-73
2022/03/29 12:43:59;;;;;;;;;;;17.90;50.10;;;;;;5045630;28;19940;-73
2022/03/29 12:46:26;;;;;;;;;;;18.10;52.00;;;;;;5038822;28;19955;-72
2022/03/29 12:48:52;;;;;;;;;;;17.90;49.30;;;;;;5049080;28;19908;-73
2022/03/29 12:51:24;;;;;;;;;;;18.10;48.90;;;;;;5034341;28;20000;-72
2022/03/29 12:54:00;;;;;;;;;;;17.90;48.80;;;;;;5033552;28;20465;-73
2022/03/29 12:56:46;;;;;;;;;;;18.10;52.10;;;;;;5039026;28;19971;-72
2022/03/29 12:59:40;;;;;;;;;;;18.30;48.20;;;;;;5047117;28;19952;-74
2022/03/29 13:02:08;;;;;;;;;;;18.00;47.70;;;;;;5046268;28;20416;-73
2022/03/29 13:04:35;;;;;;;;;;;18.00;46.60;;;;;;5052394;28;19915;-74
2022/03/29 13:07:01;;;;;;;;;;;18.50;48.20;;;;;;5052715;28;19916;-74
2022/03/29 13:09:26;;;;;;;;;;;18.60;47.40;;;;;;5052669;28;19913;-74
2022/03/29 13:12:09;;;;;;;;;;;18.40;45.50;;;;;;5045126;28;19909;-74
2022/03/29 13:14:35;;;;;;;;;;;18.60;48.60;;;;;;5038562;28;19909;-74
2022/03/29 13:17:00;;;;;;;;;;;19.10;46.40;;;;;;5050681;28;19917;-74
2022/03/29 13:19:26;;;;;;;;;;;19.40;46.60;;;;;;5038075;28;20394;-74
2022/03/29 13:21:58;;;;;;;;;;;19.30;45.20;;;;;;5033068;28;19913;-73
2022/03/29 13:24:33;;;;;;;;;;;19.20;47.60;;;;;;5035335;28;19932;-72
2022/03/29 13:27:00;;;;;;;;;;;19.00;49.20;;;;;;5032824;28;20407;-72
2022/03/29 13:29:27;;;;;;;;;;;19.10;45.70;;;;;;5032820;28;19965;-71
2022/03/29 13:31:53;;;;;;;;;;;19.00;47.20;;;;;;5032959;28;19967;-73
2022/03/29 13:34:19;;;;;;;;;;;19.20;45.70;;;;;;5032790;28;19916;-73
2022/03/29 13:36:44;;;;;;;;;;;18.90;42.80;;;;;;5032833;28;20008;-73
2022/03/29 13:39:11;;;;;;;;;;;18.70;45.60;;;;;;5040253;28;19913;-72
2022/03/29 13:41:36;;;;;;;;;;;18.80;43.50;;;;;;5032094;28;20062;-72
2022/03/29 13:44:02;;;;;;;;;;;18.80;44.90;;;;;;5038859;28;19940;-73
2022/03/29 13:46:28;;;;;;;;;;;18.60;44.60;;;;;;5036182;28;19909;-73
2022/03/29 13:48:53;;;;;;;;;;;18.70;45.90;;;;;;5046548;28;19947;-73
2022/03/29 13:51:19;;;;;;;;;;;18.70;44.30;;;;;;5033033;28;19948;-72
2022/03/29 13:53:45;;;;;;;;;;;18.90;45.60;;;;;;5051487;28;19932;-73
2022/03/29 13:56:11;;;;;;;;;;;18.90;44.50;;;;;;5040766;28;19913;-72
2022/03/29 13:58:37;;;;;;;;;;;19.10;48.70;;;;;;5039753;28;20009;-72
2022/03/29 14:01:03;;;;;;;;;;;18.90;44.70;;;;;;5035944;28;20015;-72
2022/03/29 14:03:29;;;;;;;;;;;18.90;45.00;;;;;;5036739;28;19909;-72
2022/03/29 14:05:54;;;;;;;;;;;18.60;44.90;;;;;;5030844;28;20374;-72
2022/03/29 14:08:20;;;;;;;;;;;18.50;45.20;;;;;;5032127;28;19964;-72
2022/03/29 14:10:46;;;;;;;;;;;18.60;45.50;;;;;;5032113;28;19991;-73
2022/03/29 14:13:12;;;;;;;;;;;18.60;44.40;;;;;;5038016;28;20325;-73
2022/03/29 14:15:41;;;;;;;;;;;18.50;46.10;;;;;;5041350;28;19909;-72
2022/03/29 14:18:10;;;;;;;;;;;17.90;46.20;;;;;;5032095;28;19917;-72
2022/03/29 14:20:36;;;;;;;;;;;17.50;46.20;;;;;;5031625;28;20349;-72
2022/03/29 14:23:03;;;;;;;;;;;17.20;45.90;;;;;;5031623;28;19909;-72
2022/03/29 14:25:28;;;;;;;;;;;17.30;46.40;;;;;;5032067;28;20369;-73
2022/03/29 14:27:54;;;;;;;;;;;17.30;45.00;;;;;;5032016;28;19910;-72
2022/03/29 14:30:19;;;;;;;;;;;17.50;47.60;;;;;;5031746;28;19909;-72
2022/03/29 14:32:45;;;;;;;;;;;17.60;47.10;;;;;;5031366;28;20366;-72
2022/03/29 14:35:11;;;;;;;;;;;17.70;46.70;;;;;;5031131;28;19916;-73